Terminal Aerodrome Forecast
Issued by NWS

Home | Current Version | Previous Version | Text Only | Print | Product List | Glossary Off
Versions: 1 2 3 4 5 6 7 8 9 10 11 12 13 14 15 16 17 18 19 20 21

000
FTUS42 KMHX 110500
TAFISO
TAF
KISO 110533Z 1106/1206 00000KT 4SM BR BKN009
     FM111400 VRB03KT P6SM VCSH BKN020
     FM111800 21005KT P6SM VCTS SCT020 BKN040CB
      AMD LTD TO CLD VIS AND WIND=

USA.gov is the U.S. government's official web portal to all federal, state and local government web resources and services.